createdAt,value
2023-05-12T00:00:33.255Z,53.01
2023-05-12T00:03:03.754Z,53.20
2023-05-12T00:05:31.690Z,53.24
2023-05-12T00:07:59.629Z,53.19
2023-05-12T00:10:27.889Z,53.35
2023-05-12T00:12:56.486Z,53.48
2023-05-12T00:15:25.779Z,53.55
2023-05-12T00:17:53.762Z,53.75
2023-05-12T00:20:22.030Z,53.45
2023-05-12T00:22:50.094Z,53.50
2023-05-12T00:25:18.004Z,53.69
2023-05-12T00:27:45.851Z,53.49
2023-05-12T00:30:14.268Z,53.62
2023-05-12T00:32:43.586Z,53.63
2023-05-12T00:35:11.581Z,53.58
2023-05-12T00:37:39.447Z,53.70
2023-05-12T00:40:08.789Z,53.78
2023-05-12T00:42:36.668Z,53.78
2023-05-12T00:45:05.111Z,53.82
2023-05-12T00:47:32.985Z,53.80
2023-05-12T00:50:02.273Z,53.72
2023-05-12T00:52:30.186Z,53.83
2023-05-12T00:54:58.233Z,53.73
2023-05-12T00:57:27.867Z,53.76
2023-05-12T00:59:55.923Z,53.91
2023-05-12T01:02:23.962Z,53.82
2023-05-12T01:04:52.230Z,53.74
2023-05-12T01:07:23.086Z,53.97
2023-05-12T01:09:55.438Z,53.98
2023-05-12T01:12:23.447Z,53.77
2023-05-12T01:14:51.380Z,53.88
2023-05-12T01:17:21.404Z,53.76
2023-05-12T01:19:50.476Z,53.87
2023-05-12T01:22:18.542Z,53.68
2023-05-12T01:24:51.646Z,53.53
2023-05-12T01:27:20.910Z,53.83
2023-05-12T01:29:49.121Z,53.88
2023-05-12T01:32:16.983Z,53.80
2023-05-12T01:34:44.878Z,53.82
2023-05-12T01:37:12.814Z,53.66
2023-05-12T01:39:40.755Z,53.71
2023-05-12T01:42:08.781Z,53.81
2023-05-12T01:44:37.995Z,53.83
2023-05-12T01:47:09.848Z,53.68
2023-05-12T01:49:37.814Z,53.43
2023-05-12T01:52:06.457Z,53.68
2023-05-12T01:54:34.369Z,53.82
2023-05-12T01:57:02.282Z,53.71
2023-05-12T01:59:30.109Z,53.63
2023-05-12T02:01:59.337Z,53.53
2023-05-12T02:04:27.222Z,53.70
2023-05-12T02:06:55.080Z,53.79
2023-05-12T02:09:23.054Z,53.79
2023-05-12T02:11:50.955Z,53.77
2023-05-12T02:14:45.267Z,53.69
2023-05-12T02:17:14.911Z,53.89
2023-05-12T02:19:42.786Z,54.00
2023-05-12T02:22:10.663Z,54.25
2023-05-12T02:24:38.539Z,54.22
2023-05-12T02:27:06.866Z,54.29
2023-05-12T02:29:34.753Z,54.45
2023-05-12T02:32:02.726Z,54.17
2023-05-12T02:34:31.997Z,54.31
2023-05-12T02:36:59.866Z,54.37
2023-05-12T02:39:27.722Z,54.35
2023-05-12T02:41:55.602Z,54.23
2023-05-12T02:44:23.499Z,54.34
2023-05-12T02:46:51.353Z,54.45
2023-05-12T02:49:19.211Z,54.33
2023-05-12T02:51:49.369Z,54.38
2023-05-12T02:54:17.466Z,54.56
2023-05-12T02:56:45.367Z,54.52
2023-05-12T02:59:13.284Z,54.56
2023-05-12T03:01:41.175Z,54.53
2023-05-12T03:04:09.059Z,54.62
2023-05-12T03:06:36.908Z,54.62
2023-05-12T03:09:06.158Z,54.65
2023-05-12T03:11:33.989Z,54.79
2023-05-12T03:14:01.883Z,54.86
2023-05-12T03:16:29.739Z,54.78
2023-05-12T03:18:57.648Z,54.67
2023-05-12T03:21:25.647Z,54.59
2023-05-12T03:23:53.533Z,54.83
2023-05-12T03:26:22.810Z,54.78
2023-05-12T03:28:50.681Z,54.75
2023-05-12T03:31:18.624Z,54.71
2023-05-12T03:33:46.511Z,54.68
2023-05-12T03:36:14.375Z,54.81
2023-05-12T03:38:42.299Z,54.71
2023-05-12T03:41:10.220Z,54.75
2023-05-12T03:43:40.434Z,54.75
2023-05-12T03:46:08.345Z,54.75
2023-05-12T03:48:36.227Z,54.89
2023-05-12T03:51:04.155Z,54.85
2023-05-12T03:53:32.041Z,54.92
2023-05-12T03:56:04.763Z,54.90
2023-05-12T03:58:32.617Z,54.89
2023-05-12T04:01:02.457Z,54.87
2023-05-12T04:03:31.151Z,54.94
2023-05-12T04:06:00.179Z,55.05
2023-05-12T04:08:28.050Z,54.88
2023-05-12T04:10:56.148Z,55.01
2023-05-12T04:13:23.972Z,55.01
2023-05-12T04:15:51.847Z,55.17
2023-05-12T04:18:21.145Z,55.00
2023-05-12T04:20:49.031Z,54.97
2023-05-12T04:23:16.877Z,55.08
2023-05-12T04:25:44.789Z,55.09
2023-05-12T04:28:12.685Z,55.01
2023-05-12T04:30:40.604Z,55.13
2023-05-12T04:33:08.583Z,55.03
2023-05-12T04:35:37.928Z,55.02
2023-05-12T04:38:05.760Z,55.07
2023-05-12T04:40:35.050Z,55.09
2023-05-12T04:43:03.178Z,55.03
2023-05-12T04:45:31.091Z,54.97
2023-05-12T04:47:59.033Z,55.00
2023-05-12T04:50:26.904Z,55.00
2023-05-12T04:52:56.153Z,55.16
2023-05-12T04:55:24.494Z,55.01
2023-05-12T04:57:52.328Z,54.92
2023-05-12T05:00:20.570Z,55.01
2023-05-12T05:02:48.645Z,55.07
2023-05-12T05:05:16.727Z,55.23
2023-05-12T05:07:44.680Z,55.37
2023-05-12T05:10:14.133Z,55.45
2023-05-12T05:12:42.021Z,55.34
2023-05-12T05:15:11.668Z,55.35
2023-05-12T05:17:39.671Z,55.47
2023-05-12T05:20:11.602Z,55.57
2023-05-12T05:22:40.913Z,55.28
2023-05-12T05:25:10.150Z,55.53
2023-05-12T05:27:39.727Z,55.55
2023-05-12T05:30:10.117Z,55.40
2023-05-12T05:32:40.392Z,55.37
2023-05-12T05:35:08.997Z,55.45
2023-05-12T05:37:37.458Z,55.44
2023-05-12T05:40:06.244Z,55.56
2023-05-12T05:42:34.092Z,55.67
2023-05-12T05:45:03.445Z,55.32
2023-05-12T05:47:32.231Z,55.75
2023-05-12T05:50:00.240Z,55.63
2023-05-12T05:52:28.130Z,55.44
2023-05-12T05:54:55.981Z,55.58
2023-05-12T05:57:23.982Z,55.66
2023-05-12T05:59:51.830Z,55.53
2023-05-12T06:02:23.259Z,55.78
2023-05-12T06:04:52.430Z,55.81
2023-05-12T06:07:22.091Z,55.79
2023-05-12T06:09:50.172Z,55.65
2023-05-12T06:12:18.077Z,55.95
2023-05-12T06:14:46.045Z,55.90
2023-05-12T06:17:14.057Z,55.88
2023-05-12T06:19:44.147Z,55.98
2023-05-12T06:22:12.012Z,55.60
2023-05-12T06:24:39.878Z,56.03
2023-05-12T06:27:08.036Z,56.07
2023-05-12T06:29:35.939Z,56.01
2023-05-12T06:32:03.844Z,55.97
2023-05-12T06:34:31.716Z,55.91
2023-05-12T06:37:00.952Z,56.19
2023-05-12T06:39:28.807Z,56.02
2023-05-12T06:41:56.660Z,56.19
2023-05-12T06:44:24.592Z,56.05
2023-05-12T06:46:52.445Z,56.05
2023-05-12T06:49:20.459Z,56.10
2023-05-12T06:51:48.351Z,56.37
2023-05-12T06:54:17.610Z,56.36
2023-05-12T06:56:45.529Z,56.47
2023-05-12T06:59:13.464Z,56.47
2023-05-12T07:01:43.117Z,56.77
2023-05-12T07:04:11.215Z,56.76
2023-05-12T07:06:39.368Z,56.67
2023-05-12T07:09:07.271Z,56.40
2023-05-12T07:11:36.538Z,56.29
2023-05-12T07:14:04.492Z,56.27
2023-05-12T07:16:32.570Z,56.61
2023-05-12T07:19:00.585Z,56.52
2023-05-12T07:21:29.635Z,56.53
2023-05-12T07:23:57.692Z,55.91
2023-05-12T07:26:26.879Z,56.26
2023-05-12T07:29:00.775Z,55.68
2023-05-12T07:31:29.466Z,55.84
2023-05-12T07:33:58.272Z,55.54
2023-05-12T07:36:36.492Z,55.71
2023-05-12T07:39:04.672Z,55.15
2023-05-12T07:41:34.497Z,55.25
2023-05-12T07:44:05.158Z,55.63
2023-05-12T07:46:33.191Z,55.56
2023-05-12T07:49:01.798Z,55.60
2023-05-12T07:51:29.854Z,55.41
2023-05-12T07:53:58.274Z,54.91
2023-05-12T07:56:29.324Z,54.72
2023-05-12T07:58:57.308Z,54.68
2023-05-12T08:01:26.745Z,54.36
2023-05-12T08:03:54.769Z,54.43
2023-05-12T08:06:25.272Z,54.86
2023-05-12T08:08:53.582Z,54.97
2023-05-12T08:11:21.948Z,54.67
2023-05-12T08:13:49.820Z,55.02
2023-05-12T08:16:17.802Z,54.82
2023-05-12T08:18:47.101Z,54.61
2023-05-12T08:21:15.105Z,54.89
2023-05-12T08:23:42.951Z,54.75
2023-05-12T08:26:10.814Z,54.51
2023-05-12T08:28:38.682Z,53.95
2023-05-12T08:31:06.964Z,53.90
2023-05-12T08:33:35.611Z,54.22
2023-05-12T08:36:05.534Z,54.21
2023-05-12T08:38:33.426Z,53.99
2023-05-12T08:41:09.668Z,54.03
2023-05-12T08:43:39.862Z,53.67
2023-05-12T08:46:07.753Z,53.21
2023-05-12T08:48:35.847Z,53.18
2023-05-12T08:51:05.523Z,52.88
2023-05-12T08:53:33.452Z,52.98
2023-05-12T08:58:49.795Z,52.66
2023-05-12T09:01:18.121Z,52.62
2023-05-12T09:03:46.429Z,51.83
2023-05-12T09:06:15.817Z,51.99
2023-05-12T09:08:44.047Z,51.36
2023-05-12T09:11:13.683Z,50.95
2023-05-12T09:13:48.165Z,50.89
2023-05-12T09:16:16.180Z,50.12
2023-05-12T09:18:51.558Z,50.22
2023-05-12T09:21:20.840Z,49.82
2023-05-12T09:23:56.327Z,49.55
2023-05-12T09:26:24.377Z,49.66
2023-05-12T09:28:53.880Z,50.00
2023-05-12T09:31:22.605Z,50.06
2023-05-12T09:33:50.868Z,50.18
2023-05-12T09:36:21.250Z,49.79
2023-05-12T09:39:00.039Z,49.56
2023-05-12T09:41:27.959Z,48.91
2023-05-12T09:43:56.204Z,49.26
2023-05-12T09:46:26.242Z,49.11
2023-05-12T09:48:56.853Z,49.06
2023-05-12T09:51:26.221Z,48.93
2023-05-12T09:53:54.436Z,48.21
2023-05-12T09:56:22.967Z,47.92
2023-05-12T09:58:51.343Z,48.03
2023-05-12T10:01:23.368Z,47.72
2023-05-12T10:03:53.300Z,47.09
2023-05-12T10:06:22.515Z,46.86
2023-05-12T10:09:07.669Z,46.25
2023-05-12T10:11:35.611Z,46.03
2023-05-12T10:14:04.184Z,46.18
2023-05-12T10:16:33.047Z,46.38
2023-05-12T10:19:00.986Z,45.44
2023-05-12T10:21:29.680Z,44.97
2023-05-12T10:23:59.034Z,45.34
2023-05-12T10:26:27.415Z,45.63
2023-05-12T10:28:58.535Z,45.54
2023-05-12T10:31:30.266Z,45.78
2023-05-12T10:34:04.648Z,45.16
2023-05-12T10:36:32.648Z,44.92
2023-05-12T10:39:10.048Z,44.85
2023-05-12T10:41:37.937Z,44.79
2023-05-12T10:44:08.796Z,44.50
2023-05-12T10:46:37.406Z,43.07
2023-05-12T10:49:09.952Z,42.57
2023-05-12T10:51:48.452Z,43.14
2023-05-12T10:54:23.619Z,42.73
2023-05-12T10:56:51.941Z,42.46
2023-05-12T10:59:21.661Z,42.91
2023-05-12T11:02:01.305Z,43.13
2023-05-12T11:04:43.519Z,43.00
2023-05-12T11:07:14.878Z,43.05
2023-05-12T11:12:20.221Z,42.86
2023-05-12T11:14:48.728Z,42.79
2023-05-12T11:17:17.250Z,42.64
2023-05-12T11:19:49.686Z,42.15
2023-05-12T11:22:19.231Z,42.96
2023-05-12T11:24:52.754Z,42.76
2023-05-12T11:27:23.025Z,43.43
2023-05-12T11:29:57.745Z,44.77
2023-05-12T11:32:26.152Z,43.57
2023-05-12T11:34:54.203Z,43.29
2023-05-12T11:37:22.692Z,43.51
2023-05-12T11:39:53.152Z,42.67
2023-05-12T11:42:25.752Z,42.30
2023-05-12T11:44:55.524Z,41.90
2023-05-12T11:47:23.969Z,41.20
2023-05-12T11:49:52.564Z,40.30
2023-05-12T11:52:21.428Z,40.46
2023-05-12T11:54:52.057Z,39.54
2023-05-12T11:57:27.171Z,39.15
2023-05-12T11:59:59.123Z,39.29
2023-05-12T12:02:27.432Z,39.34
2023-05-12T12:04:55.408Z,37.85
2023-05-12T12:07:30.144Z,37.56
2023-05-12T12:09:59.444Z,37.31
2023-05-12T12:12:27.389Z,37.53
2023-05-12T12:15:00.041Z,37.02
2023-05-12T12:17:31.520Z,36.24
2023-05-12T12:19:59.846Z,36.17
2023-05-12T12:22:28.137Z,35.80
2023-05-12T12:24:56.265Z,35.53
2023-05-12T12:27:25.726Z,35.44
2023-05-12T12:29:57.042Z,35.64
2023-05-12T12:32:25.112Z,34.91
2023-05-12T12:34:53.538Z,34.74
2023-05-12T12:37:21.590Z,33.38
2023-05-12T12:39:49.573Z,33.74
2023-05-12T12:42:17.591Z,33.96
2023-05-12T12:44:51.724Z,33.91
2023-05-12T12:47:19.970Z,33.57
2023-05-12T12:49:50.961Z,33.22
2023-05-12T12:52:19.158Z,32.92
2023-05-12T12:54:47.191Z,33.30
2023-05-12T12:57:15.401Z,33.49
2023-05-12T12:59:45.911Z,32.92
2023-05-12T13:02:14.184Z,32.75
2023-05-12T13:04:42.242Z,32.43
2023-05-12T13:07:10.784Z,32.36
2023-05-12T13:09:38.741Z,32.05
2023-05-12T13:12:07.472Z,31.19
2023-05-12T13:14:38.080Z,31.57
2023-05-12T13:17:08.190Z,30.81
2023-05-12T13:19:38.051Z,31.23
2023-05-12T13:22:06.415Z,30.75
2023-05-12T13:24:34.771Z,30.91
2023-05-12T13:27:03.615Z,30.70
2023-05-12T13:29:32.071Z,30.30
2023-05-12T13:32:00.697Z,30.27
2023-05-12T13:34:30.109Z,30.10
2023-05-12T13:36:58.218Z,29.70
2023-05-12T13:39:26.509Z,29.57
2023-05-12T13:41:54.720Z,29.56
2023-05-12T13:44:22.932Z,28.83
2023-05-12T13:46:51.178Z,28.99
2023-05-12T13:49:20.250Z,28.86
2023-05-12T13:51:49.767Z,29.01
2023-05-12T13:54:17.781Z,28.97
2023-05-12T13:56:45.820Z,29.19
2023-05-12T13:59:14.119Z,28.94
2023-05-12T14:01:45.055Z,29.00
2023-05-12T14:04:13.292Z,29.40
2023-05-12T14:06:41.759Z,29.50
2023-05-12T14:09:14.830Z,29.49
2023-05-12T14:11:47.671Z,29.98
2023-05-12T14:14:16.250Z,30.01
2023-05-12T14:16:44.718Z,30.29
2023-05-12T14:19:13.587Z,29.90
2023-05-12T14:21:45.498Z,29.88
2023-05-12T14:24:15.570Z,29.88
2023-05-12T14:26:44.385Z,30.13
2023-05-12T14:29:12.309Z,29.88
2023-05-12T14:31:42.150Z,29.66
2023-05-12T14:34:11.824Z,29.18
2023-05-12T14:36:39.876Z,29.01
2023-05-12T14:39:09.023Z,29.82
2023-05-12T14:41:38.703Z,30.20
2023-05-12T14:44:08.991Z,30.63
2023-05-12T14:46:40.067Z,30.73
2023-05-12T14:49:12.597Z,31.01
2023-05-12T14:51:47.493Z,30.88
2023-05-12T14:54:26.823Z,30.36
2023-05-12T14:56:57.007Z,29.54
2023-05-12T14:59:25.058Z,29.32
2023-05-12T15:01:53.371Z,29.04
2023-05-12T15:04:25.806Z,28.92
2023-05-12T15:06:54.007Z,28.68
2023-05-12T15:09:22.753Z,28.44
2023-05-12T15:11:51.728Z,27.93
2023-05-12T15:14:22.228Z,27.53
2023-05-12T15:16:52.547Z,27.26
2023-05-12T15:19:24.496Z,27.04
2023-05-12T15:21:53.011Z,26.71
2023-05-12T15:24:21.246Z,26.66
2023-05-12T15:26:49.424Z,26.83
2023-05-12T15:29:20.045Z,27.25
2023-05-12T15:31:50.802Z,27.06
2023-05-12T15:34:18.748Z,27.05
2023-05-12T15:36:48.672Z,27.13
2023-05-12T15:39:17.311Z,27.30
2023-05-12T15:41:45.616Z,27.35
2023-05-12T15:44:13.559Z,27.53
2023-05-12T15:46:41.496Z,27.35
2023-05-12T15:49:11.166Z,26.94
2023-05-12T15:51:39.108Z,26.94
2023-05-12T15:54:09.327Z,26.98
2023-05-12T15:56:38.871Z,26.96
2023-05-12T15:59:06.857Z,26.63
2023-05-12T16:01:34.856Z,26.70
2023-05-12T16:04:03.173Z,26.61
2023-05-12T16:06:32.486Z,26.70
2023-05-12T16:09:00.757Z,26.64
2023-05-12T16:11:29.817Z,26.52
2023-05-12T16:13:58.222Z,26.64
2023-05-12T16:16:26.475Z,26.77
2023-05-12T16:18:54.564Z,26.64
2023-05-12T16:21:22.541Z,26.27
2023-05-12T16:23:54.556Z,25.91
2023-05-12T16:26:22.793Z,25.87
2023-05-12T16:28:51.960Z,25.47
2023-05-12T16:31:19.920Z,25.46
2023-05-12T16:33:48.065Z,25.20
2023-05-12T16:36:17.665Z,25.17
2023-05-12T16:38:46.050Z,25.32
2023-05-12T16:41:15.678Z,26.11
2023-05-12T16:43:44.190Z,26.77
2023-05-12T16:46:12.731Z,27.20
2023-05-12T16:48:45.067Z,27.64
2023-05-12T16:51:13.460Z,28.24
2023-05-12T16:53:42.102Z,28.55
2023-05-12T16:56:10.435Z,29.13
2023-05-12T16:58:40.605Z,29.64
2023-05-12T17:01:08.772Z,30.04
2023-05-12T17:03:37.292Z,30.58
2023-05-12T17:06:05.547Z,30.50
2023-05-12T17:08:35.782Z,31.10
2023-05-12T17:11:03.763Z,31.39
2023-05-12T17:13:31.659Z,31.62
2023-05-12T17:16:01.213Z,31.61
2023-05-12T17:18:29.230Z,31.81
2023-05-12T17:20:57.323Z,31.69
2023-05-12T17:23:25.197Z,31.73
2023-05-12T17:25:53.428Z,32.11
2023-05-12T17:28:22.089Z,32.73
2023-05-12T17:30:50.263Z,32.65
2023-05-12T17:33:19.548Z,32.88
2023-05-12T17:35:59.860Z,33.07
2023-05-12T17:38:35.692Z,33.11
2023-05-12T17:41:03.579Z,33.38
2023-05-12T17:43:31.657Z,33.66
2023-05-12T17:46:00.549Z,33.86
2023-05-12T17:48:33.062Z,33.53
2023-05-12T17:51:01.064Z,33.49
2023-05-12T17:53:29.009Z,33.77
2023-05-12T17:55:56.889Z,33.61
2023-05-12T17:58:24.756Z,33.17
2023-05-12T18:00:52.760Z,32.31
2023-05-12T18:03:23.803Z,31.88
2023-05-12T18:05:54.192Z,31.92
2023-05-12T18:08:22.198Z,32.48
2023-05-12T18:10:50.198Z,32.71
2023-05-12T18:13:18.109Z,32.47
2023-05-12T18:15:46.083Z,32.53
2023-05-12T18:18:14.619Z,32.21
2023-05-12T18:20:42.854Z,31.49
2023-05-12T18:23:12.266Z,30.63
2023-05-12T18:25:40.377Z,29.62
2023-05-12T18:28:08.568Z,29.77
2023-05-12T18:30:36.540Z,29.69
2023-05-12T18:33:04.916Z,30.53
2023-05-12T18:35:32.991Z,31.26
2023-05-12T18:38:01.232Z,31.30
2023-05-12T18:40:30.955Z,32.07
2023-05-12T18:42:59.640Z,32.19
2023-05-12T18:45:27.840Z,32.88
2023-05-12T18:47:55.842Z,33.87
2023-05-12T18:50:24.609Z,34.01
2023-05-12T18:52:52.820Z,34.38
2023-05-12T18:55:21.007Z,34.80
2023-05-12T18:57:50.879Z,35.32
2023-05-12T19:00:23.430Z,35.63
2023-05-12T19:02:51.409Z,36.06
2023-05-12T19:05:20.260Z,36.24
2023-05-12T19:07:48.403Z,36.57
2023-05-12T19:10:16.346Z,36.89
2023-05-12T19:12:44.195Z,37.20
2023-05-12T19:15:13.484Z,37.62
2023-05-12T19:17:41.435Z,37.90
2023-05-12T19:20:10.332Z,38.13
2023-05-12T19:22:38.729Z,38.23
2023-05-12T19:25:07.183Z,38.21
2023-05-12T19:27:35.110Z,38.26
2023-05-12T19:30:05.077Z,38.18
2023-05-12T19:32:34.582Z,38.38
2023-05-12T19:35:02.569Z,38.35
2023-05-12T19:37:31.026Z,38.50
2023-05-12T19:39:59.294Z,38.75
2023-05-12T19:42:27.700Z,38.96
2023-05-12T19:44:55.638Z,39.26
2023-05-12T19:47:26.423Z,39.26
2023-05-12T19:49:55.737Z,39.48
2023-05-12T19:52:24.558Z,39.71
2023-05-12T19:54:52.486Z,39.67
2023-05-12T19:57:20.968Z,39.88
2023-05-12T19:59:49.612Z,39.91
2023-05-12T20:02:17.980Z,39.83
2023-05-12T20:04:45.938Z,39.91
2023-05-12T20:07:15.231Z,39.73
2023-05-12T20:09:43.206Z,39.79
2023-05-12T20:12:11.371Z,39.64
2023-05-12T20:14:39.439Z,39.76
2023-05-12T20:17:08.121Z,39.95
2023-05-12T20:19:39.437Z,39.74
2023-05-12T20:22:07.454Z,39.69
2023-05-12T20:24:37.123Z,39.59
2023-05-12T20:27:05.169Z,39.81
2023-05-12T20:29:33.061Z,39.71
2023-05-12T20:32:00.941Z,39.86
2023-05-12T20:34:29.205Z,39.75
2023-05-12T20:36:57.529Z,39.77
2023-05-12T20:39:25.385Z,39.84
2023-05-12T20:41:54.648Z,40.02
2023-05-12T20:44:22.926Z,40.09
2023-05-12T20:46:51.172Z,40.35
2023-05-12T20:49:19.099Z,40.31
2023-05-12T20:51:47.049Z,40.50
2023-05-12T20:54:14.912Z,40.47
2023-05-12T20:56:42.779Z,40.62
2023-05-12T20:59:12.105Z,40.44
2023-05-12T21:01:40.215Z,40.45
2023-05-12T21:04:08.312Z,40.65
2023-05-12T21:06:36.660Z,40.70
2023-05-12T21:09:05.604Z,40.61
2023-05-12T21:11:33.662Z,40.59
2023-05-12T21:14:01.557Z,40.54
2023-05-12T21:16:30.952Z,40.65
2023-05-12T21:18:58.910Z,40.88
2023-05-12T21:21:26.943Z,40.99
2023-05-12T21:23:54.813Z,41.00
2023-05-12T21:26:23.021Z,41.28
2023-05-12T21:28:50.945Z,41.60
2023-05-12T21:31:18.860Z,41.45
2023-05-12T21:33:48.506Z,41.57
2023-05-12T21:36:16.421Z,41.73
2023-05-12T21:38:44.282Z,42.04
2023-05-12T21:41:12.122Z,42.27
2023-05-12T21:43:40.093Z,42.33
2023-05-12T21:46:07.990Z,42.48
2023-05-12T21:48:35.914Z,43.01
2023-05-12T21:51:05.681Z,43.07
2023-05-12T21:53:33.610Z,43.23
2023-05-12T21:56:01.466Z,43.36
2023-05-12T21:58:29.351Z,43.52
2023-05-12T22:00:57.563Z,43.87
2023-05-12T22:03:26.164Z,43.93
2023-05-12T22:05:54.080Z,44.36
2023-05-12T22:08:23.459Z,44.76
2023-05-12T22:10:51.352Z,44.82
2023-05-12T22:13:19.493Z,45.06
2023-05-12T22:15:47.471Z,45.23
2023-05-12T22:18:15.410Z,45.50
2023-05-12T22:20:43.535Z,45.54
2023-05-12T22:23:11.508Z,45.77
2023-05-12T22:25:40.845Z,45.63
2023-05-12T22:28:08.738Z,45.79
2023-05-12T22:30:36.575Z,45.96
2023-05-12T22:33:04.597Z,46.17
2023-05-12T22:35:32.785Z,46.63
2023-05-12T22:38:00.710Z,46.38
2023-05-12T22:40:29.190Z,46.39
2023-05-12T22:42:58.620Z,46.72
2023-05-12T22:45:26.573Z,46.91
2023-05-12T22:47:54.530Z,47.26
2023-05-12T22:50:22.547Z,47.49
2023-05-12T22:52:52.796Z,47.37
2023-05-12T22:55:20.878Z,47.43
2023-05-12T22:57:48.746Z,47.29
2023-05-12T23:00:18.825Z,47.17
2023-05-12T23:02:47.089Z,47.28
2023-05-12T23:05:15.069Z,47.51
2023-05-12T23:07:42.978Z,47.32
2023-05-12T23:10:11.249Z,47.02
2023-05-12T23:12:39.172Z,47.13
2023-05-12T23:15:07.788Z,46.70
2023-05-12T23:17:37.124Z,46.76
2023-05-12T23:20:05.892Z,46.85
2023-05-12T23:22:33.761Z,46.65
2023-05-12T23:25:01.980Z,46.84
2023-05-12T23:27:29.934Z,46.51
2023-05-12T23:29:57.830Z,46.62
2023-05-12T23:32:25.951Z,46.92
2023-05-12T23:34:55.361Z,47.00
2023-05-12T23:37:24.522Z,46.61
2023-05-12T23:39:52.489Z,46.95
2023-05-12T23:42:20.370Z,47.04
2023-05-12T23:44:48.263Z,46.68
2023-05-12T23:47:16.189Z,46.83
2023-05-12T23:49:44.040Z,47.12
2023-05-12T23:52:13.297Z,46.64
2023-05-12T23:54:42.149Z,46.98
2023-05-12T23:57:10.030Z,46.67
2023-05-12T23:59:37.894Z,46.81
